sensor_id;sensor_type;location;lat;lon;timestamp;pressure;altitude;pressure_sealevel;temperature;humidity
61337;BME280;47212;41.326;2.104;2022-10-31T00:03:41;101901.75;;;19.68;84.93
61337;BME280;47212;41.326;2.104;2022-10-31T00:08:53;101901.53;;;19.65;85.19
61337;BME280;47212;41.326;2.104;2022-10-31T00:14:00;101902.41;;;19.60;85.12
61337;BME280;47212;41.326;2.104;2022-10-31T00:19:18;101903.00;;;19.57;84.89
61337;BME280;47212;41.326;2.104;2022-10-31T00:24:27;101903.06;;;19.52;84.93
61337;BME280;47212;41.326;2.104;2022-10-31T00:29:34;101909.13;;;19.49;84.79
61337;BME280;47212;41.326;2.104;2022-10-31T00:34:42;101915.84;;;19.43;85.30
61337;BME280;47212;41.326;2.104;2022-10-31T00:39:53;101917.25;;;19.40;85.10
61337;BME280;47212;41.326;2.104;2022-10-31T00:45:25;101920.88;;;19.36;84.98
61337;BME280;47212;41.326;2.104;2022-10-31T00:50:38;101921.47;;;19.33;85.11
61337;BME280;47212;41.326;2.104;2022-10-31T00:55:43;101922.06;;;19.30;85.17
61337;BME280;47212;41.326;2.104;2022-10-31T01:00:52;101914.34;;;19.27;85.10
61337;BME280;47212;41.326;2.104;2022-10-31T01:06:08;101920.16;;;19.25;85.32
61337;BME280;47212;41.326;2.104;2022-10-31T01:11:21;101913.81;;;19.25;85.42
61337;BME280;47212;41.326;2.104;2022-10-31T01:16:27;101912.19;;;19.24;85.21
61337;BME280;47212;41.326;2.104;2022-10-31T01:21:33;101907.78;;;19.23;85.26
61337;BME280;47212;41.326;2.104;2022-10-31T01:26:39;101908.91;;;19.22;85.37
61337;BME280;47212;41.326;2.104;2022-10-31T01:31:42;101899.50;;;19.23;85.59
61337;BME280;47212;41.326;2.104;2022-10-31T01:36:56;101895.09;;;19.22;85.39
61337;BME280;47212;41.326;2.104;2022-10-31T01:42:00;101882.69;;;19.19;85.48
61337;BME280;47212;41.326;2.104;2022-10-31T01:47:43;101885.75;;;19.18;85.55
61337;BME280;47212;41.326;2.104;2022-10-31T01:52:57;101888.28;;;19.14;85.59
61337;BME280;47212;41.326;2.104;2022-10-31T01:58:08;101891.63;;;19.11;85.45
61337;BME280;47212;41.326;2.104;2022-10-31T02:05:18;101880.34;;;19.07;85.55
61337;BME280;47212;41.326;2.104;2022-10-31T02:13:47;101885.88;;;19.02;85.57
61337;BME280;47212;41.326;2.104;2022-10-31T02:18:58;101865.50;;;18.98;85.70
61337;BME280;47212;41.326;2.104;2022-10-31T02:30:23;101874.13;;;18.92;86.10
61337;BME280;47212;41.326;2.104;2022-10-31T02:36:10;101869.19;;;18.89;86.00
61337;BME280;47212;41.326;2.104;2022-10-31T02:47:12;101864.53;;;18.84;85.65
61337;BME280;47212;41.326;2.104;2022-10-31T02:52:28;101857.97;;;18.80;85.59
61337;BME280;47212;41.326;2.104;2022-10-31T02:57:39;101853.59;;;18.74;85.42
61337;BME280;47212;41.326;2.104;2022-10-31T03:03:04;101843.16;;;18.71;85.33
61337;BME280;47212;41.326;2.104;2022-10-31T03:08:32;101851.47;;;18.66;85.37
61337;BME280;47212;41.326;2.104;2022-10-31T03:14:14;101850.41;;;18.62;85.33
61337;BME280;47212;41.326;2.104;2022-10-31T03:19:34;101847.38;;;18.58;85.30
61337;BME280;47212;41.326;2.104;2022-10-31T03:24:43;101853.19;;;18.57;85.34
61337;BME280;47212;41.326;2.104;2022-10-31T03:29:59;101855.69;;;18.53;85.47
61337;BME280;47212;41.326;2.104;2022-10-31T03:35:28;101848.00;;;18.50;85.46
61337;BME280;47212;41.326;2.104;2022-10-31T03:40:36;101849.94;;;18.50;85.61
61337;BME280;47212;41.326;2.104;2022-10-31T03:45:48;101858.22;;;18.50;85.51
61337;BME280;47212;41.326;2.104;2022-10-31T03:51:21;101862.06;;;18.49;85.41
61337;BME280;47212;41.326;2.104;2022-10-31T03:57:06;101851.63;;;18.45;85.33
61337;BME280;47212;41.326;2.104;2022-10-31T04:02:31;101856.31;;;18.45;85.16
61337;BME280;47212;41.326;2.104;2022-10-31T04:07:39;101857.72;;;18.42;85.23
61337;BME280;47212;41.326;2.104;2022-10-31T04:12:48;101858.28;;;18.39;85.13
61337;BME280;47212;41.326;2.104;2022-10-31T04:18:04;101847.84;;;18.36;85.40
61337;BME280;47212;41.326;2.104;2022-10-31T04:23:25;101845.38;;;18.35;85.25
61337;BME280;47212;41.326;2.104;2022-10-31T04:28:31;101841.25;;;18.32;85.16
61337;BME280;47212;41.326;2.104;2022-10-31T04:33:39;101848.16;;;18.30;85.19
61337;BME280;47212;41.326;2.104;2022-10-31T04:38:41;101847.91;;;18.26;84.85
61337;BME280;47212;41.326;2.104;2022-10-31T04:43:57;101840.50;;;18.22;84.71
61337;BME280;47212;41.326;2.104;2022-10-31T04:49:03;101842.44;;;18.16;85.03
61337;BME280;47212;41.326;2.104;2022-10-31T04:54:05;101848.00;;;18.11;85.07
61337;BME280;47212;41.326;2.104;2022-10-31T04:59:28;101843.59;;;18.10;85.09
61337;BME280;47212;41.326;2.104;2022-10-31T05:04:34;101843.59;;;18.10;85.14
61337;BME280;47212;41.326;2.104;2022-10-31T05:09:38;101848.28;;;18.09;85.06
61337;BME280;47212;41.326;2.104;2022-10-31T05:14:41;101852.97;;;18.09;84.98
61337;BME280;47212;41.326;2.104;2022-10-31T05:20:09;101845.81;;;18.08;85.07
61337;BME280;47212;41.326;2.104;2022-10-31T05:26:41;101842.78;;;18.09;84.90
61337;BME280;47212;41.326;2.104;2022-10-31T05:33:13;101845.00;;;18.07;84.94
61337;BME280;47212;41.326;2.104;2022-10-31T05:38:34;101848.56;;;18.08;84.77
61337;BME280;47212;41.326;2.104;2022-10-31T05:43:45;101852.16;;;18.08;84.77
61337;BME280;47212;41.326;2.104;2022-10-31T05:48:56;101854.06;;;18.08;84.96
61337;BME280;47212;41.326;2.104;2022-10-31T05:54:25;101854.06;;;18.08;84.57
61337;BME280;47212;41.326;2.104;2022-10-31T05:59:27;101852.16;;;18.08;84.80
61337;BME280;47212;41.326;2.104;2022-10-31T06:04:29;101862.63;;;18.06;84.65
61337;BME280;47212;41.326;2.104;2022-10-31T06:09:32;101855.75;;;18.04;84.58
61337;BME280;47212;41.326;2.104;2022-10-31T06:14:35;101862.38;;;18.03;84.83
61337;BME280;47212;41.326;2.104;2022-10-31T06:19:38;101869.00;;;18.02;84.92
61337;BME280;47212;41.326;2.104;2022-10-31T06:24:43;101869.00;;;18.02;85.13
61337;BME280;47212;41.326;2.104;2022-10-31T06:30:07;101869.81;;;18.02;84.90
61337;BME280;47212;41.326;2.104;2022-10-31T06:35:13;101864.03;;;18.04;84.91
61337;BME280;47212;41.326;2.104;2022-10-31T06:40:16;101873.38;;;18.08;84.76
61337;BME280;47212;41.326;2.104;2022-10-31T06:45:43;101874.97;;;18.14;84.76
61337;BME280;47212;41.326;2.104;2022-10-31T06:50:51;101889.25;;;18.26;83.98
61337;BME280;47212;41.326;2.104;2022-10-31T06:56:01;101883.13;;;18.34;83.84
61337;BME280;47212;41.326;2.104;2022-10-31T07:01:12;101878.66;;;18.43;83.32
61337;BME280;47212;41.326;2.104;2022-10-31T07:06:14;101886.84;;;18.54;82.59
61337;BME280;47212;41.326;2.104;2022-10-31T07:11:16;101900.31;;;18.60;82.25
61337;BME280;47212;41.326;2.104;2022-10-31T07:16:24;101904.41;;;18.68;81.62
61337;BME280;47212;41.326;2.104;2022-10-31T07:21:27;101917.00;;;18.79;80.70
61337;BME280;47212;41.326;2.104;2022-10-31T07:26:30;101919.91;;;18.93;79.98
61337;BME280;47212;41.326;2.104;2022-10-31T07:31:32;101921.16;;;19.05;79.22
61337;BME280;47212;41.326;2.104;2022-10-31T07:36:39;101921.03;;;19.21;78.27
61337;BME280;47212;41.326;2.104;2022-10-31T07:41:41;101922.91;;;19.78;76.35
61337;BME280;47212;41.326;2.104;2022-10-31T07:46:44;101910.66;;;20.97;72.27
61337;BME280;47212;41.326;2.104;2022-10-31T07:52:25;101924.28;;;21.94;68.25
61337;BME280;47212;41.326;2.104;2022-10-31T07:57:58;101920.66;;;22.58;66.16
61337;BME280;47212;41.326;2.104;2022-10-31T08:03:08;101924.00;;;23.13;64.42
61337;BME280;47212;41.326;2.104;2022-10-31T08:08:33;101916.03;;;23.51;64.39
61337;BME280;47212;41.326;2.104;2022-10-31T08:13:41;101911.84;;;23.40;64.13
61337;BME280;47212;41.326;2.104;2022-10-31T08:18:47;101922.22;;;23.17;64.98
61337;BME280;47212;41.326;2.104;2022-10-31T08:23:56;101925.28;;;22.84;65.90
61337;BME280;47212;41.326;2.104;2022-10-31T08:28:59;101926.88;;;22.41;66.57
61337;BME280;47212;41.326;2.104;2022-10-31T08:34:05;101922.19;;;22.28;66.74
61337;BME280;47212;41.326;2.104;2022-10-31T08:39:27;101915.69;;;22.32;66.88
61337;BME280;47212;41.326;2.104;2022-10-31T08:44:29;101925.22;;;22.40;66.58
61337;BME280;47212;41.326;2.104;2022-10-31T08:49:31;101900.97;;;22.45;66.18
61337;BME280;47212;41.326;2.104;2022-10-31T08:54:33;101906.28;;;22.55;65.92
61337;BME280;47212;41.326;2.104;2022-10-31T08:59:53;101905.59;;;22.72;65.19
61337;BME280;47212;41.326;2.104;2022-10-31T09:05:18;101923.84;;;22.87;65.22
61337;BME280;47212;41.326;2.104;2022-10-31T09:10:20;101921.31;;;22.99;64.97
61337;BME280;47212;41.326;2.104;2022-10-31T09:15:22;101925.72;;;23.00;64.50
61337;BME280;47212;41.326;2.104;2022-10-31T09:20:35;101926.16;;;22.94;64.58
61337;BME280;47212;41.326;2.104;2022-10-31T09:25:38;101927.50;;;22.96;64.87
61337;BME280;47212;41.326;2.104;2022-10-31T09:31:02;101928.28;;;23.19;64.30
61337;BME280;47212;41.326;2.104;2022-10-31T09:36:22;101931.63;;;23.38;64.17
61337;BME280;47212;41.326;2.104;2022-10-31T09:53:04;101905.13;;;23.55;63.25
61337;BME280;47212;41.326;2.104;2022-10-31T09:58:16;101904.47;;;23.58;63.87
61337;BME280;47212;41.326;2.104;2022-10-31T10:03:34;101905.47;;;23.62;63.79
61337;BME280;47212;41.326;2.104;2022-10-31T10:08:59;101901.53;;;23.63;64.58
61337;BME280;47212;41.326;2.104;2022-10-31T10:14:38;101898.94;;;23.75;64.20
61337;BME280;47212;41.326;2.104;2022-10-31T10:25:19;101900.53;;;24.41;63.45
61337;BME280;47212;41.326;2.104;2022-10-31T10:30:38;101891.00;;;24.77;62.93
61337;BME280;47212;41.326;2.104;2022-10-31T10:35:57;101882.41;;;25.08;61.25
61337;BME280;47212;41.326;2.104;2022-10-31T10:41:17;101872.00;;;25.34;60.45
61337;BME280;47212;41.326;2.104;2022-10-31T10:52:01;101878.91;;;25.66;57.76
61337;BME280;47212;41.326;2.104;2022-10-31T10:57:45;101879.06;;;25.70;57.80
61337;BME280;47212;41.326;2.104;2022-10-31T11:02:58;101879.06;;;25.70;60.12
61337;BME280;47212;41.326;2.104;2022-10-31T11:08:05;101879.34;;;25.77;60.33
61337;BME280;47212;41.326;2.104;2022-10-31T11:18:26;101852.81;;;25.71;58.10
61337;BME280;47212;41.326;2.104;2022-10-31T11:23:29;101855.16;;;25.31;60.77
61337;BME280;47212;41.326;2.104;2022-10-31T11:28:32;101860.88;;;25.34;60.89
61337;BME280;47212;41.326;2.104;2022-10-31T11:33:46;101860.50;;;25.45;60.16
61337;BME280;47212;41.326;2.104;2022-10-31T11:38:50;101858.94;;;25.26;60.97
61337;BME280;47212;41.326;2.104;2022-10-31T11:44:01;101847.69;;;24.97;61.10
61337;BME280;47212;41.326;2.104;2022-10-31T11:49:05;101846.28;;;24.73;62.72
61337;BME280;47212;41.326;2.104;2022-10-31T11:54:21;101839.97;;;24.47;63.85
61337;BME280;47212;41.326;2.104;2022-10-31T11:59:28;101841.13;;;24.46;64.33
61337;BME280;47212;41.326;2.104;2022-10-31T12:05:01;101824.88;;;24.65;63.87
61337;BME280;47212;41.326;2.104;2022-10-31T12:10:11;101813.31;;;24.93;63.67
61337;BME280;47212;41.326;2.104;2022-10-31T12:15:34;101802.66;;;24.95;63.78
61337;BME280;47212;41.326;2.104;2022-10-31T12:26:21;101793.31;;;25.37;63.47
61337;BME280;47212;41.326;2.104;2022-10-31T12:31:49;101783.94;;;25.42;62.93
61337;BME280;47212;41.326;2.104;2022-10-31T12:42:49;101776.72;;;25.41;62.70
61337;BME280;47212;41.326;2.104;2022-10-31T12:48:16;101769.22;;;25.33;62.92
61337;BME280;47212;41.326;2.104;2022-10-31T13:09:47;101745.97;;;24.91;64.91
61337;BME280;47212;41.326;2.104;2022-10-31T13:15:28;101737.59;;;24.61;65.85
61337;BME280;47212;41.326;2.104;2022-10-31T13:20:37;101731.78;;;24.37;66.35
61337;BME280;47212;41.326;2.104;2022-10-31T13:25:53;101733.91;;;24.05;68.46
61337;BME280;47212;41.326;2.104;2022-10-31T13:30:56;101734.44;;;23.90;69.20
61337;BME280;47212;41.326;2.104;2022-10-31T13:41:20;101734.44;;;23.90;70.25
61337;BME280;47212;41.326;2.104;2022-10-31T13:46:40;101732.97;;;23.84;71.23
61337;BME280;47212;41.326;2.104;2022-10-31T13:51:45;101727.41;;;23.75;70.87
61337;BME280;47212;41.326;2.104;2022-10-31T13:56:51;101731.16;;;23.71;72.04
61337;BME280;47212;41.326;2.104;2022-10-31T14:02:00;101717.44;;;23.66;71.63
61337;BME280;47212;41.326;2.104;2022-10-31T14:07:15;101726.44;;;23.63;72.69
61337;BME280;47212;41.326;2.104;2022-10-31T14:12:29;101728.34;;;23.45;73.80
61337;BME280;47212;41.326;2.104;2022-10-31T14:22:54;101725.50;;;23.19;74.57
61337;BME280;47212;41.326;2.104;2022-10-31T14:27:58;101720.59;;;23.16;75.09
61337;BME280;47212;41.326;2.104;2022-10-31T14:33:12;101721.75;;;23.15;75.71
61337;BME280;47212;41.326;2.104;2022-10-31T14:44:37;101724.84;;;23.22;76.46
61337;BME280;47212;41.326;2.104;2022-10-31T14:54:35;101714.06;;;23.12;76.95
61337;BME280;47212;41.326;2.104;2022-10-31T14:59:42;101720.06;;;22.97;77.85
61337;BME280;47212;41.326;2.104;2022-10-31T15:04:55;101713.31;;;22.80;78.00
61337;BME280;47212;41.326;2.104;2022-10-31T15:10:25;101719.94;;;22.71;80.45
61337;BME280;47212;41.326;2.104;2022-10-31T15:15:28;101731.34;;;22.61;79.79
61337;BME280;47212;41.326;2.104;2022-10-31T15:20:36;101730.75;;;22.50;81.12
61337;BME280;47212;41.326;2.104;2022-10-31T15:25:40;101729.44;;;22.47;81.20
61337;BME280;47212;41.326;2.104;2022-10-31T15:30:53;101722.72;;;22.40;82.73
61337;BME280;47212;41.326;2.104;2022-10-31T15:35:57;101724.94;;;22.29;83.37
61337;BME280;47212;41.326;2.104;2022-10-31T15:41:04;101725.72;;;22.21;83.35
61337;BME280;47212;41.326;2.104;2022-10-31T15:46:09;101726.66;;;22.16;84.16
61337;BME280;47212;41.326;2.104;2022-10-31T15:51:12;101722.56;;;22.14;84.21
61337;BME280;47212;41.326;2.104;2022-10-31T15:56:22;101733.34;;;22.15;85.59
61337;BME280;47212;41.326;2.104;2022-10-31T16:01:32;101724.22;;;22.15;84.96
61337;BME280;47212;41.326;2.104;2022-10-31T16:06:35;101736.75;;;22.12;84.74
61337;BME280;47212;41.326;2.104;2022-10-31T16:11:38;101745.19;;;22.07;84.83
61337;BME280;47212;41.326;2.104;2022-10-31T16:16:49;101737.38;;;22.09;85.28
61337;BME280;47212;41.326;2.104;2022-10-31T16:22:02;101729.25;;;22.13;84.29
61337;BME280;47212;41.326;2.104;2022-10-31T16:27:15;101736.56;;;22.09;84.00
61337;BME280;47212;41.326;2.104;2022-10-31T16:37:39;101720.97;;;21.99;84.01
61337;BME280;47212;41.326;2.104;2022-10-31T16:42:42;101718.84;;;21.96;83.97
61337;BME280;47212;41.326;2.104;2022-10-31T16:47:45;101717.31;;;21.90;84.20
61337;BME280;47212;41.326;2.104;2022-10-31T16:52:48;101727.91;;;21.88;84.38
61337;BME280;47212;41.326;2.104;2022-10-31T16:58:16;101745.03;;;21.90;84.92
61337;BME280;47212;41.326;2.104;2022-10-31T17:03:19;101767.22;;;21.90;84.45
61337;BME280;47212;41.326;2.104;2022-10-31T17:08:22;101778.00;;;21.91;84.19
61337;BME280;47212;41.326;2.104;2022-10-31T17:13:28;101789.41;;;21.90;84.15
61337;BME280;47212;41.326;2.104;2022-10-31T17:18:31;101779.44;;;21.89;83.79
61337;BME280;47212;41.326;2.104;2022-10-31T17:23:33;101769.78;;;21.86;83.96
61337;BME280;47212;41.326;2.104;2022-10-31T17:28:36;101779.44;;;21.89;84.00
61337;BME280;47212;41.326;2.104;2022-10-31T17:33:38;101783.84;;;21.90;83.86
61337;BME280;47212;41.326;2.104;2022-10-31T17:38:40;101772.44;;;21.91;83.63
61337;BME280;47212;41.326;2.104;2022-10-31T17:43:42;101765.06;;;21.87;83.85
61337;BME280;47212;41.326;2.104;2022-10-31T17:48:44;101774.22;;;21.87;83.74
61337;BME280;47212;41.326;2.104;2022-10-31T17:53:46;101759.53;;;21.87;83.77
61337;BME280;47212;41.326;2.104;2022-10-31T17:58:48;101807.78;;;21.86;83.91
61337;BME280;47212;41.326;2.104;2022-10-31T18:03:51;101803.38;;;21.85;83.59
61337;BME280;47212;41.326;2.104;2022-10-31T18:08:52;101811.38;;;21.86;83.69
61337;BME280;47212;41.326;2.104;2022-10-31T18:13:58;101826.56;;;21.89;83.50
61337;BME280;47212;41.326;2.104;2022-10-31T18:19:00;101806.84;;;21.90;83.76
61337;BME280;47212;41.326;2.104;2022-10-31T18:24:07;101817.31;;;21.93;83.52
61337;BME280;47212;41.326;2.104;2022-10-31T18:29:10;101825.50;;;21.99;83.49
61337;BME280;47212;41.326;2.104;2022-10-31T18:34:14;101831.25;;;22.02;83.55
61337;BME280;47212;41.326;2.104;2022-10-31T18:39:16;101825.91;;;22.06;82.98
61337;BME280;47212;41.326;2.104;2022-10-31T18:44:20;101835.56;;;22.08;82.61
61337;BME280;47212;41.326;2.104;2022-10-31T18:49:23;101833.28;;;22.10;82.39
61337;BME280;47212;41.326;2.104;2022-10-31T18:54:26;101829.38;;;22.11;82.21
61337;BME280;47212;41.326;2.104;2022-10-31T18:59:28;101823.22;;;22.14;81.83
61337;BME280;47212;41.326;2.104;2022-10-31T19:04:30;101820.44;;;22.14;81.95
61337;BME280;47212;41.326;2.104;2022-10-31T19:09:36;101817.66;;;22.14;81.97
61337;BME280;47212;41.326;2.104;2022-10-31T19:14:38;101817.66;;;22.14;81.97
61337;BME280;47212;41.326;2.104;2022-10-31T19:19:40;101838.22;;;22.13;82.04
61337;BME280;47212;41.326;2.104;2022-10-31T19:24:42;101831.84;;;22.13;82.30
61337;BME280;47212;41.326;2.104;2022-10-31T19:29:44;101815.53;;;22.11;82.71
61337;BME280;47212;41.326;2.104;2022-10-31T19:34:46;101803.63;;;22.11;82.98
61337;BME280;47212;41.326;2.104;2022-10-31T19:39:48;101801.47;;;22.08;83.11
61337;BME280;47212;41.326;2.104;2022-10-31T19:44:52;101789.06;;;22.05;83.20
61337;BME280;47212;41.326;2.104;2022-10-31T19:49:54;101788.56;;;22.03;83.34
61337;BME280;47212;41.326;2.104;2022-10-31T19:54:56;101814.59;;;22.02;83.41
61337;BME280;47212;41.326;2.104;2022-10-31T19:59:58;101812.97;;;22.01;83.57
61337;BME280;47212;41.326;2.104;2022-10-31T20:05:00;101805.78;;;22.00;83.54
61337;BME280;47212;41.326;2.104;2022-10-31T20:10:02;101806.59;;;22.01;83.64
61337;BME280;47212;41.326;2.104;2022-10-31T20:15:07;101815.75;;;22.01;83.56
61337;BME280;47212;41.326;2.104;2022-10-31T20:20:10;101831.25;;;22.02;83.73
61337;BME280;47212;41.326;2.104;2022-10-31T20:25:12;101823.22;;;22.01;83.83
61337;BME280;47212;41.326;2.104;2022-10-31T20:30:14;101807.41;;;22.01;83.55
61337;BME280;47212;41.326;2.104;2022-10-31T20:35:17;101805.19;;;22.03;83.42
61337;BME280;47212;41.326;2.104;2022-10-31T20:40:20;101816.28;;;22.03;83.30
61337;BME280;47212;41.326;2.104;2022-10-31T20:45:23;101801.88;;;22.01;83.32
61337;BME280;47212;41.326;2.104;2022-10-31T20:50:26;101809.38;;;22.01;83.02
61337;BME280;47212;41.326;2.104;2022-10-31T20:55:28;101802.50;;;21.98;83.45
61337;BME280;47212;41.326;2.104;2022-10-31T21:06:01;101831.34;;;21.97;83.68
61337;BME280;47212;41.326;2.104;2022-10-31T21:11:12;101843.59;;;21.96;83.75
61337;BME280;47212;41.326;2.104;2022-10-31T21:16:17;101838.03;;;21.96;83.95
61337;BME280;47212;41.326;2.104;2022-10-31T21:21:29;101849.94;;;21.97;83.92
61337;BME280;47212;41.326;2.104;2022-10-31T21:26:36;101873.25;;;21.96;83.87
61337;BME280;47212;41.326;2.104;2022-10-31T21:31:39;101879.13;;;21.94;83.82
61337;BME280;47212;41.326;2.104;2022-10-31T21:36:42;101893.59;;;21.91;84.05
61337;BME280;47212;41.326;2.104;2022-10-31T21:41:47;101899.75;;;21.88;84.00
61337;BME280;47212;41.326;2.104;2022-10-31T21:46:53;101899.88;;;21.83;83.62
61337;BME280;47212;41.326;2.104;2022-10-31T21:51:55;101902.44;;;21.79;83.62
61337;BME280;47212;41.326;2.104;2022-10-31T21:56:59;101895.06;;;21.75;83.62
61337;BME280;47212;41.326;2.104;2022-10-31T22:02:02;101875.78;;;21.70;83.85
61337;BME280;47212;41.326;2.104;2022-10-31T22:07:04;101870.53;;;21.68;83.73
61337;BME280;47212;41.326;2.104;2022-10-31T22:12:06;101885.50;;;21.67;83.69
61337;BME280;47212;41.326;2.104;2022-10-31T22:17:10;101882.53;;;21.63;83.37
61337;BME280;47212;41.326;2.104;2022-10-31T22:22:12;101891.44;;;21.60;83.80
61337;BME280;47212;41.326;2.104;2022-10-31T22:27:15;101874.31;;;21.58;83.76
61337;BME280;47212;41.326;2.104;2022-10-31T22:32:18;101876.25;;;21.58;83.85
61337;BME280;47212;41.326;2.104;2022-10-31T22:37:20;101869.91;;;21.57;83.85
61337;BME280;47212;41.326;2.104;2022-10-31T22:42:22;101869.09;;;21.57;83.67
61337;BME280;47212;41.326;2.104;2022-10-31T22:47:26;101872.16;;;21.55;83.69
61337;BME280;47212;41.326;2.104;2022-10-31T22:52:28;101864.97;;;21.54;83.44
61337;BME280;47212;41.326;2.104;2022-10-31T22:57:30;101863.34;;;21.53;83.28
61337;BME280;47212;41.326;2.104;2022-10-31T23:02:42;101863.34;;;21.53;83.18
61337;BME280;47212;41.326;2.104;2022-10-31T23:07:44;101867.25;;;21.52;83.40
61337;BME280;47212;41.326;2.104;2022-10-31T23:12:46;101861.19;;;21.50;83.25
61337;BME280;47212;41.326;2.104;2022-10-31T23:18:07;101845.38;;;21.51;83.25
61337;BME280;47212;41.326;2.104;2022-10-31T23:23:32;101847.53;;;21.54;83.09
61337;BME280;47212;41.326;2.104;2022-10-31T23:28:34;101837.59;;;21.53;83.05
61337;BME280;47212;41.326;2.104;2022-10-31T23:33:36;101835.63;;;21.53;83.02
61337;BME280;47212;41.326;2.104;2022-10-31T23:38:38;101830.09;;;21.53;83.02
61337;BME280;47212;41.326;2.104;2022-10-31T23:43:40;101832.06;;;21.53;83.19
61337;BME280;47212;41.326;2.104;2022-10-31T23:48:42;101840.66;;;21.51;83.18
61337;BME280;47212;41.326;2.104;2022-10-31T23:53:48;101848.97;;;21.51;83.24
61337;BME280;47212;41.326;2.104;2022-10-31T23:58:50;101846.22;;;21.51;83.39
